Time;durP1;ratioP1;P1;durP2;ratioP2;P2;SDS_P1;SDS_P2;PMS_P1;PMS_P2;Temp;Humidity;BMP_temperature;BMP_pressure;BME280_temperature;BME280_humidity;BME280_pressure;Samples;Min_cycle;Max_cycle;Signal;HPM_P1;HPM_P2
2021/12/26 00:00:23;;;;;;;16.38;10.95;;;;;;;5.05;90.04;98454.41;4957949;28;20204;-76
2021/12/26 00:02:48;;;;;;;16.98;10.55;;;;;;;5.01;89.80;98456.38;4960789;28;20755;-76
2021/12/26 00:05:14;;;;;;;13.00;9.00;;;;;;;4.99;90.22;98460.00;4964782;28;20231;-76
2021/12/26 00:07:40;;;;;;;29.33;10.40;;;;;;;4.98;90.15;98461.75;4970986;28;20236;-76
2021/12/26 00:10:09;;;;;;;26.73;12.13;;;;;;;4.93;89.89;98462.97;4962741;28;20476;-76
2021/12/26 00:12:35;;;;;;;19.45;10.15;;;;;;;4.87;89.98;98458.97;4966099;28;20678;-76
2021/12/26 00:15:02;;;;;;;17.33;9.73;;;;;;;4.83;90.00;98462.66;4963357;28;20290;-76
2021/12/26 00:17:27;;;;;;;20.65;11.30;;;;;;;4.80;90.13;98452.44;4963389;28;21032;-76
2021/12/26 00:19:53;;;;;;;15.30;10.63;;;;;;;4.81;90.06;98459.34;4963632;28;20209;-76
2021/12/26 00:22:18;;;;;;;19.30;11.17;;;;;;;4.81;89.98;98454.13;4966261;28;20209;-76
2021/12/26 00:24:45;;;;;;;18.70;10.17;;;;;;;4.77;90.08;98463.03;4963479;28;20621;-76
2021/12/26 00:27:11;;;;;;;21.05;11.85;;;;;;;4.74;90.13;98464.03;4964655;28;20355;-76
2021/12/26 00:29:37;;;;;;;15.90;9.90;;;;;;;4.72;90.26;98465.06;4963187;28;20283;-76
2021/12/26 00:32:03;;;;;;;24.47;13.00;;;;;;;4.80;90.52;98462.84;4964534;28;20479;-76
2021/12/26 00:34:28;;;;;;;19.60;10.93;;;;;;;4.79;90.16;98462.00;4955428;28;20332;-76
2021/12/26 00:36:54;;;;;;;16.03;9.83;;;;;;;4.76;90.27;98474.38;4958497;28;20622;-76
2021/12/26 00:39:19;;;;;;;12.20;9.30;;;;;;;4.75;90.29;98470.06;4959089;28;20295;-76
2021/12/26 00:41:45;;;;;;;14.57;9.00;;;;;;;4.76;90.26;98471.75;4964115;28;20277;-76
2021/12/26 00:44:10;;;;;;;16.33;11.00;;;;;;;4.75;89.98;98475.28;4945208;28;20212;-76
2021/12/26 00:46:37;;;;;;;22.35;11.65;;;;;;;4.73;90.24;98469.34;4964142;28;20193;-76
2021/12/26 00:49:04;;;;;;;13.33;9.00;;;;;;;4.71;90.08;98473.78;4945747;28;20565;-77
2021/12/26 00:51:29;;;;;;;14.68;9.23;;;;;;;4.68;90.01;98474.81;4964000;28;20588;-76
2021/12/26 00:53:55;;;;;;;15.33;10.93;;;;;;;4.66;90.13;98482.69;4964207;28;20672;-77
2021/12/26 00:56:20;;;;;;;24.87;9.20;;;;;;;4.63;90.21;98472.47;4961498;28;20673;-77
2021/12/26 00:58:47;;;;;;;16.03;8.80;;;;;;;4.63;90.09;98479.44;4964613;28;20708;-77
2021/12/26 01:01:12;;;;;;;13.07;9.25;;;;;;;4.59;89.99;98477.91;4964219;28;20204;-77
2021/12/26 01:03:38;;;;;;;16.00;9.93;;;;;;;4.56;89.92;98478.09;4962316;28;20616;-77
2021/12/26 01:06:04;;;;;;;16.67;9.97;;;;;;;4.51;89.89;98475.78;4955304;28;20291;-77
2021/12/26 01:08:30;;;;;;;12.18;9.20;;;;;;;4.49;89.99;98474.19;4946112;28;20248;-77
2021/12/26 01:11:05;;;;;;;16.50;9.98;;;;;;;4.49;90.22;98469.00;4945509;28;20223;-77
2021/12/26 01:13:38;;;;;;;21.17;11.23;;;;;;;4.45;90.03;98476.09;4945909;28;20562;-77
2021/12/26 01:16:37;;;;;;;14.20;8.40;;;;;;;4.39;90.02;98476.47;4929878;28;20696;-77
2021/12/26 01:19:12;;;;;;;15.70;8.75;;;;;;;4.38;89.85;98477.41;4965230;28;20228;-77
2021/12/26 01:21:39;;;;;;;12.43;7.78;;;;;;;4.33;90.07;98482.00;4947779;28;20211;-76
2021/12/26 01:24:14;;;;;;;16.50;9.88;;;;;;;4.32;89.79;98480.31;4946941;28;20312;-76
2021/12/26 01:26:40;;;;;;;13.88;9.32;;;;;;;4.30;90.00;98484.78;4947668;28;20353;-77
2021/12/26 01:29:07;;;;;;;10.50;7.73;;;;;;;4.29;89.94;98490.91;4941407;28;20208;-76
2021/12/26 01:31:34;;;;;;;12.57;8.20;;;;;;;4.25;90.11;98492.00;4946966;28;20235;-76
2021/12/26 01:34:09;;;;;;;11.77;8.35;;;;;;;4.22;90.07;98488.66;4947964;28;20211;-76
2021/12/26 01:36:43;;;;;;;16.30;9.45;;;;;;;4.20;90.07;98493.09;4939632;28;20297;-77
2021/12/26 01:39:28;;;;;;;12.75;6.93;;;;;;;4.19;90.15;98491.41;4965237;28;20223;-76
2021/12/26 01:42:19;;;;;;;11.68;8.38;;;;;;;4.19;90.04;98494.03;4964863;28;20291;-77
2021/12/26 01:45:07;;;;;;;9.07;6.88;;;;;;;4.21;90.00;98493.91;4944436;28;20208;-76
2021/12/26 01:47:41;;;;;;;12.15;7.35;;;;;;;4.21;89.84;98493.91;4960072;28;20216;-77
2021/12/26 01:50:08;;;;;;;8.50;6.33;;;;;;;4.17;89.59;98498.44;4960107;28;20207;-77
2021/12/26 01:52:34;;;;;;;13.20;6.93;;;;;;;4.16;89.86;98494.19;4951288;28;20195;-76
2021/12/26 01:55:20;;;;;;;8.98;7.45;;;;;;;4.14;89.75;98500.41;4955991;28;20192;-77
2021/12/26 01:57:48;;;;;;;14.00;9.50;;;;;;;4.15;90.01;98502.06;4966258;28;20219;-76
2021/12/26 02:00:15;;;;;;;12.85;7.53;;;;;;;4.19;89.97;98503.59;4945913;28;20263;-77
2021/12/26 02:02:48;;;;;;;12.63;6.78;;;;;;;4.21;89.82;98509.50;4967707;28;20220;-77
2021/12/26 02:05:14;;;;;;;12.75;7.30;;;;;;;4.23;89.93;98502.47;4950756;28;20286;-77
2021/12/26 02:07:39;;;;;;;11.40;7.80;;;;;;;4.26;89.85;98510.09;4965195;28;20724;-76
2021/12/26 02:10:06;;;;;;;10.67;6.73;;;;;;;4.28;89.95;98503.06;4947899;28;20728;-76
2021/12/26 02:12:32;;;;;;;11.00;8.27;;;;;;;4.27;89.78;98510.97;4951331;28;20578;-77
2021/12/26 02:14:57;;;;;;;10.30;6.63;;;;;;;4.24;89.71;98508.50;4950651;28;20804;-77
2021/12/26 02:17:49;;;;;;;12.98;7.60;;;;;;;4.20;89.48;98508.69;4968701;28;20234;-76
2021/12/26 02:20:15;;;;;;;14.37;7.60;;;;;;;4.18;89.40;98518.31;4968262;28;20208;-77
2021/12/26 02:22:45;;;;;;;11.13;7.77;;;;;;;4.17;89.87;98511.44;4949998;28;20462;-77
2021/12/26 02:25:26;;;;;;;20.00;8.05;;;;;;;4.19;89.83;98509.63;4951195;28;20447;-77
2021/12/26 02:27:52;;;;;;;13.15;8.02;;;;;;;4.22;89.78;98511.22;4951530;28;20235;-78
2021/12/26 02:30:17;;;;;;;14.33;7.00;;;;;;;4.21;89.88;98507.78;4951432;28;20204;-77
2021/12/26 02:32:49;;;;;;;9.45;6.80;;;;;;;4.20;89.56;98500.03;4948624;28;20714;-77
2021/12/26 02:35:16;;;;;;;10.40;7.55;;;;;;;4.16;89.74;98504.59;4951523;28;20885;-77
2021/12/26 02:37:42;;;;;;;10.80;6.40;;;;;;;4.13;89.80;98499.56;4966935;28;20331;-78
2021/12/26 02:40:09;;;;;;;12.35;7.05;;;;;;;4.12;89.71;98505.66;4948378;28;21120;-76
2021/12/26 02:42:35;;;;;;;13.48;7.47;;;;;;;4.13;89.41;98498.69;4949394;28;20204;-77
2021/12/26 02:45:00;;;;;;;11.47;6.57;;;;;;;4.15;89.57;98499.47;4948577;28;20296;-77
2021/12/26 02:47:34;;;;;;;11.87;6.73;;;;;;;4.15;89.81;98510.69;4953477;28;20314;-77
2021/12/26 02:50:03;;;;;;;12.30;7.65;;;;;;;4.15;89.75;98508.09;4943989;28;20207;-77
2021/12/26 02:52:29;;;;;;;7.85;5.72;;;;;;;4.16;89.99;98507.19;4958615;28;20220;-77
2021/12/26 02:54:58;;;;;;;9.40;6.40;;;;;;;4.15;89.49;98502.88;4965116;28;20212;-77
2021/12/26 02:57:23;;;;;;;12.45;6.55;;;;;;;4.12;89.41;98503.06;4959033;28;20231;-76
2021/12/26 02:59:49;;;;;;;12.03;6.57;;;;;;;4.13;89.34;98503.91;4949053;28;20208;-77
2021/12/26 03:02:14;;;;;;;12.50;9.03;;;;;;;4.26;89.51;98512.69;4961953;28;21161;-77
2021/12/26 03:04:40;;;;;;;9.30;7.10;;;;;;;4.24;89.44;98508.50;4952960;28;20330;-76
2021/12/26 03:07:09;;;;;;;13.23;7.50;;;;;;;4.20;89.42;98508.69;4989419;23;20260;-88
2021/12/26 03:09:44;;;;;;;11.18;6.95;;;;;;;4.19;89.54;98513.97;4946224;28;20320;-89
2021/12/26 03:12:10;;;;;;;10.50;6.65;;;;;;;4.20;89.58;98503.47;4959436;28;20220;-89
2021/12/26 03:14:38;;;;;;;11.77;6.82;;;;;;;4.22;89.50;98508.59;4962501;28;20204;-89
2021/12/26 03:17:04;;;;;;;11.55;6.40;;;;;;;4.20;89.25;98503.47;4937922;28;20311;-89
2021/12/26 03:19:31;;;;;;;14.00;8.05;;;;;;;4.18;89.25;98504.47;4952900;28;20262;-88
2021/12/26 03:21:56;;;;;;;11.75;6.85;;;;;;;4.15;88.88;98507.25;4952762;28;20240;-89
2021/12/26 03:24:22;;;;;;;9.60;6.67;;;;;;;4.14;89.32;98514.22;4955062;28;20227;-89
2021/12/26 03:26:48;;;;;;;7.65;5.93;;;;;;;4.12;89.43;98508.25;4955799;28;20204;-88
2021/12/26 03:29:14;;;;;;;14.13;8.60;;;;;;;4.15;89.49;98509.84;4961913;28;20209;-89
2021/12/26 03:31:41;;;;;;;14.32;9.23;;;;;;;4.21;89.17;98505.19;4953806;28;20575;-89
2021/12/26 03:34:08;;;;;;;9.67;6.80;;;;;;;4.19;89.22;98506.19;4957525;28;21473;-88
2021/12/26 03:36:34;;;;;;;10.30;7.03;;;;;;;4.18;89.27;98512.28;4962766;28;20479;-91
2021/12/26 03:39:00;;;;;;;11.60;7.10;;;;;;;4.18;89.23;98520.91;4965507;28;20223;-89
2021/12/26 03:41:30;;;;;;;15.77;9.57;;;;;;;4.17;89.50;98514.06;4961721;28;20235;-89
2021/12/26 03:43:58;;;;;;;8.95;7.43;;;;;;;4.16;89.23;98517.59;4969122;28;20215;-88
2021/12/26 03:46:24;;;;;;;11.07;7.57;;;;;;;4.14;88.99;98514.22;4954692;28;20745;-87
2021/12/26 03:48:50;;;;;;;12.52;7.93;;;;;;;4.12;88.99;98521.25;4956653;28;20223;-88
2021/12/26 03:51:16;;;;;;;12.00;7.40;;;;;;;4.12;89.17;98510.84;4951663;28;20292;-88
2021/12/26 03:53:41;;;;;;;6.87;5.50;;;;;;;4.11;89.05;98510.97;4952407;28;20242;-89
2021/12/26 03:56:07;;;;;;;9.68;6.60;;;;;;;4.10;89.20;98517.91;4958646;28;20253;-87
2021/12/26 03:58:37;;;;;;;9.15;7.20;;;;;;;4.08;89.02;98514.56;4965886;28;20212;-88
2021/12/26 04:01:02;;;;;;;8.60;6.63;;;;;;;4.07;89.20;98517.22;4956549;28;20225;-89
2021/12/26 04:03:28;;;;;;;9.93;7.20;;;;;;;4.03;89.01;98515.75;4963027;28;20299;-89
2021/12/26 04:05:57;;;;;;;12.65;6.72;;;;;;;4.03;89.26;98515.75;4945580;28;20748;-88
2021/12/26 04:08:24;;;;;;;11.45;7.55;;;;;;;4.03;89.15;98513.97;4955992;28;20232;-89
2021/12/26 04:10:52;;;;;;;11.27;6.77;;;;;;;4.03;89.13;98513.97;4973424;28;20223;-89
2021/12/26 04:13:20;;;;;;;10.70;6.43;;;;;;;4.02;89.09;98514.88;4965491;28;20500;-88
2021/12/26 04:15:46;;;;;;;11.10;7.03;;;;;;;4.01;89.33;98505.41;4966371;28;20204;-89
2021/12/26 04:18:13;;;;;;;9.35;7.00;;;;;;;4.00;88.68;98503.75;4968684;28;20211;-89
2021/12/26 04:20:39;;;;;;;14.52;6.43;;;;;;;4.02;89.25;98508.84;4968421;28;20242;-89
2021/12/26 04:23:05;;;;;;;10.52;6.10;;;;;;;4.05;89.08;98511.28;4968250;28;20214;-89
2021/12/26 04:25:31;;;;;;;9.70;7.13;;;;;;;4.05;89.15;98511.28;4979443;28;20225;-89
2021/12/26 04:27:57;;;;;;;9.27;6.32;;;;;;;4.04;88.77;98515.63;4962944;28;20200;-89
2021/12/26 04:30:24;;;;;;;9.27;7.87;;;;;;;4.03;89.01;98516.56;4970768;28;20200;-88
2021/12/26 04:32:51;;;;;;;9.68;6.35;;;;;;;4.01;88.93;98518.41;4965446;28;20960;-88
2021/12/26 04:35:19;;;;;;;9.45;7.13;;;;;;;3.99;88.95;98513.28;4966622;28;20633;-89
2021/12/26 04:37:46;;;;;;;9.00;5.97;;;;;;;3.98;89.20;98522.00;4970268;28;20231;-89
2021/12/26 04:40:14;;;;;;;8.68;6.47;;;;;;;3.97;88.91;98514.31;4984596;28;20227;-88
2021/12/26 04:43:03;;;;;;;6.53;5.53;;;;;;;3.96;89.14;98521.25;4965509;28;20228;-88
2021/12/26 04:45:38;;;;;;;9.20;7.20;;;;;;;3.97;89.02;98516.91;4971094;28;20332;-88
2021/12/26 04:48:22;;;;;;;9.70;7.50;;;;;;;3.98;89.20;98518.59;4970364;28;20215;-88
2021/12/26 04:50:48;;;;;;;12.40;7.13;;;;;;;4.00;89.25;98519.34;4969454;28;20207;-88
2021/12/26 04:53:13;;;;;;;12.73;6.97;;;;;;;4.02;89.20;98519.25;4965702;28;20665;-90
2021/12/26 04:55:39;;;;;;;11.40;7.07;;;;;;;4.01;89.06;98523.59;4969757;28;20562;-88
2021/12/26 04:58:05;;;;;;;10.53;5.40;;;;;;;4.01;89.17;98521.00;4967838;28;20207;-89
2021/12/26 05:00:32;;;;;;;7.68;6.18;;;;;;;3.99;89.44;98528.88;4965375;28;20238;-89
2021/12/26 05:02:59;;;;;;;9.20;7.05;;;;;;;3.99;89.34;98528.03;4963528;28;21010;-89
2021/12/26 05:05:28;;;;;;;10.70;7.47;;;;;;;4.01;89.30;98531.41;4964398;28;20254;-89
2021/12/26 05:07:54;;;;;;;9.32;6.07;;;;;;;4.00;89.34;98524.53;4970114;28;20246;-90
2021/12/26 05:10:21;;;;;;;8.13;5.32;;;;;;;4.02;89.14;98530.47;4983691;28;20265;-90
2021/12/26 05:12:47;;;;;;;10.98;5.95;;;;;;;4.04;89.20;98527.81;4937609;28;20365;-89
2021/12/26 05:15:16;;;;;;;9.13;6.38;;;;;;;4.02;89.37;98533.06;4963174;28;20217;-89
2021/12/26 05:17:42;;;;;;;8.15;6.63;;;;;;;4.02;89.22;98527.88;4988383;28;20298;-90
2021/12/26 05:20:10;;;;;;;7.20;6.10;;;;;;;4.03;89.45;98533.94;4969456;28;20207;-88
2021/12/26 05:22:36;;;;;;;10.80;7.15;;;;;;;4.03;89.31;98529.56;4980674;28;20206;-90
2021/12/26 05:25:06;;;;;;;12.80;8.13;;;;;;;4.04;89.20;98523.44;4976388;28;20221;-90
2021/12/26 05:27:32;;;;;;;8.25;6.60;;;;;;;4.05;89.30;98532.06;4984364;28;20203;-90
2021/12/26 05:29:58;;;;;;;13.23;8.67;;;;;;;4.08;89.39;98532.75;4974436;28;20239;-91
2021/12/26 05:32:26;;;;;;;14.43;7.80;;;;;;;4.13;89.61;98535.94;4993425;28;20466;-90
2021/12/26 05:34:52;;;;;;;10.48;7.20;;;;;;;4.19;89.45;98534.78;4991262;28;20938;-91
2021/12/26 05:37:18;;;;;;;10.53;7.50;;;;;;;4.23;89.38;98536.25;5001712;28;20310;-91
2021/12/26 05:39:43;;;;;;;10.80;7.27;;;;;;;4.25;89.37;98531.81;4977709;28;20473;-91
2021/12/26 05:42:15;;;;;;;13.53;7.30;;;;;;;4.27;89.33;98544.75;4974877;28;20231;-91
2021/12/26 05:44:46;;;;;;;13.38;6.75;;;;;;;4.25;89.47;98528.41;4983894;28;20676;-90
2021/12/26 05:47:13;;;;;;;12.10;7.18;;;;;;;4.26;89.08;98530.88;4973379;28;20453;-90
2021/12/26 05:49:54;;;;;;;10.65;9.25;;;;;;;4.20;89.05;98532.06;4976301;28;20214;-91
2021/12/26 05:52:21;;;;;;;12.57;7.63;;;;;;;4.14;89.17;98535.00;4973898;28;20202;-90
2021/12/26 05:55:22;;;;;;;11.63;7.45;;;;;;;4.13;89.23;98533.34;4972115;28;20690;-92
2021/12/26 05:57:50;;;;;;;11.52;7.10;;;;;;;4.16;89.46;98535.78;4975106;28;20237;-91
2021/12/26 06:00:18;;;;;;;11.32;6.90;;;;;;;4.21;89.35;98544.16;4974076;28;20203;-92
2021/12/26 06:02:44;;;;;;;10.95;8.27;;;;;;;4.27;89.37;98540.38;4992793;28;20302;-91
2021/12/26 06:05:11;;;;;;;10.57;6.85;;;;;;;4.27;89.15;98540.38;4977293;28;20623;-91
2021/12/26 06:07:38;;;;;;;10.85;8.05;;;;;;;4.27;89.17;98547.34;4977194;28;20199;-91
2021/12/26 06:10:05;;;;;;;7.90;7.10;;;;;;;4.26;89.25;98541.28;4975830;28;20241;-91
2021/12/26 06:12:32;;;;;;;8.85;6.05;;;;;;;4.25;88.97;98542.22;4977160;28;20224;-92
2021/12/26 06:14:58;;;;;;;10.23;6.82;;;;;;;4.25;89.33;98541.38;4977724;28;20622;-91
2021/12/26 06:17:23;;;;;;;11.27;7.53;;;;;;;4.20;89.28;98539.03;4986222;28;20219;-91
2021/12/26 06:23:12;;;;;;;12.25;8.00;;;;;;;4.17;89.28;98537.44;4997596;28;20219;-89
2021/12/26 06:25:47;;;;;;;12.25;8.57;;;;;;;4.21;89.50;98531.16;5002694;28;20211;-90
2021/12/26 06:28:20;;;;;;;11.02;7.60;;;;;;;4.23;89.03;98531.06;4978089;28;20701;-91
2021/12/26 06:31:19;;;;;;;13.47;8.33;;;;;;;4.25;89.42;98537.03;4948904;28;20474;-90
2021/12/26 06:34:03;;;;;;;11.55;8.95;;;;;;;4.27;89.42;98542.16;4989241;28;20485;-91
2021/12/26 06:36:47;;;;;;;13.75;9.10;;;;;;;4.27;89.07;98534.34;4989671;28;20277;-90
2021/12/26 06:39:31;;;;;;;13.82;8.45;;;;;;;4.30;89.44;98537.63;4992048;28;20234;-89
2021/12/26 06:42:15;;;;;;;9.43;7.35;;;;;;;4.32;89.19;98547.91;4994920;28;20263;-88
2021/12/26 06:45:04;;;;;;;10.90;8.00;;;;;;;4.31;89.22;98546.25;4992398;28;20241;-89
2021/12/26 06:47:57;;;;;;;10.50;7.50;;;;;;;4.31;89.18;98544.47;4958088;28;20204;-88
2021/12/26 06:50:23;;;;;;;10.85;7.78;;;;;;;4.32;89.32;98545.31;4971092;28;20208;-88
2021/12/26 06:52:48;;;;;;;16.03;9.00;;;;;;;4.34;89.24;98538.28;4981179;28;20245;-89
2021/12/26 06:55:15;;;;;;;15.38;7.93;;;;;;;4.37;89.39;98549.31;4971683;28;20207;-89
2021/12/26 06:57:41;;;;;;;12.33;6.50;;;;;;;4.41;89.48;98550.03;4988241;28;20226;-89
2021/12/26 07:00:09;;;;;;;12.93;7.90;;;;;;;4.44;89.16;98548.06;4971728;28;20211;-89
2021/12/26 07:02:35;;;;;;;16.63;10.63;;;;;;;4.62;89.17;98554.03;4989865;28;20480;-89
2021/12/26 07:05:01;;;;;;;13.80;9.10;;;;;;;4.59;88.64;98545.53;4977201;28;20656;-89
2021/12/26 07:07:37;;;;;;;9.57;7.28;;;;;;;4.54;88.41;98548.41;4982893;28;20203;-89
2021/12/26 07:10:04;;;;;;;8.87;6.93;;;;;;;4.50;88.97;98551.25;4984307;28;20636;-88
2021/12/26 07:12:30;;;;;;;10.88;7.60;;;;;;;4.46;88.76;98550.59;4983254;28;20463;-89
2021/12/26 07:15:08;;;;;;;13.40;7.30;;;;;;;4.40;88.60;98548.31;5009094;28;20286;-88
2021/12/26 07:17:41;;;;;;;9.45;7.22;;;;;;;4.36;88.77;98554.63;5003765;28;20253;-88
2021/12/26 07:20:09;;;;;;;11.85;7.80;;;;;;;4.33;88.70;98552.19;4993298;28;20203;-87
2021/12/26 07:22:56;;;;;;;14.00;9.52;;;;;;;4.32;88.57;98560.91;4984201;28;20355;-87
2021/12/26 07:25:25;;;;;;;8.73;7.38;;;;;;;4.28;88.82;98557.66;4984800;28;20210;-88
2021/12/26 07:27:50;;;;;;;9.83;6.87;;;;;;;4.30;88.94;98558.41;4971929;28;20200;-88
2021/12/26 07:30:51;;;;;;;12.02;7.47;;;;;;;4.26;88.77;98561.25;4994522;28;20207;-89
2021/12/26 07:33:17;;;;;;;12.02;8.52;;;;;;;4.21;89.08;98567.56;4980843;28;20208;-87
2021/12/26 07:35:46;;;;;;;8.77;6.22;;;;;;;4.18;89.23;98561.66;4973049;28;20270;-88
2021/12/26 07:38:33;;;;;;;11.88;7.70;;;;;;;4.16;88.96;98566.97;4987677;28;20744;-88
2021/12/26 07:40:58;;;;;;;15.07;10.30;;;;;;;4.15;89.04;98567.88;5003057;28;20238;-89
2021/12/26 07:43:32;;;;;;;14.30;9.13;;;;;;;4.14;89.15;98566.19;5007435;28;20187;-86
2021/12/26 07:46:20;;;;;;;16.60;10.35;;;;;;;4.13;89.22;98569.72;5003848;28;20210;-88
2021/12/26 07:48:47;;;;;;;10.20;7.28;;;;;;;4.15;88.87;98573.06;4970689;28;20218;-87
2021/12/26 07:51:31;;;;;;;12.38;8.38;;;;;;;4.15;89.09;98573.06;4986318;28;20260;-89
2021/12/26 07:54:17;;;;;;;12.63;8.40;;;;;;;4.17;89.22;98562.59;4984362;28;20229;-89
2021/12/26 07:57:01;;;;;;;11.48;8.60;;;;;;;4.20;89.23;98565.84;4984811;28;20234;-88
2021/12/26 07:59:45;;;;;;;16.27;9.02;;;;;;;4.24;89.05;98568.28;4989876;28;20419;-89
2021/12/26 08:02:30;;;;;;;11.50;9.10;;;;;;;4.25;88.91;98573.41;4982358;28;20213;-87
2021/12/26 08:05:16;;;;;;;12.57;7.30;;;;;;;4.23;88.88;98575.25;4979261;28;20223;-87
2021/12/26 08:07:59;;;;;;;11.85;7.95;;;;;;;4.19;88.91;98564.19;4979801;28;21331;-88
2021/12/26 08:10:25;;;;;;;10.20;7.33;;;;;;;4.16;88.86;98569.56;4982843;28;20450;-89
2021/12/26 08:12:50;;;;;;;12.40;9.40;;;;;;;4.13;88.78;98567.13;4967010;28;20680;-90
2021/12/26 08:15:16;;;;;;;13.00;6.87;;;;;;;4.14;88.89;98580.97;4984930;28;20821;-88
2021/12/26 08:17:42;;;;;;;11.53;7.37;;;;;;;4.17;88.96;98588.59;4981820;28;20856;-88
2021/12/26 08:20:09;;;;;;;11.80;7.37;;;;;;;4.21;88.98;98587.47;4977195;28;20212;-88
2021/12/26 08:22:35;;;;;;;14.98;9.57;;;;;;;4.27;89.21;98586.34;4984259;28;20450;-89
2021/12/26 08:25:00;;;;;;;14.73;8.93;;;;;;;4.29;88.94;98584.47;4985934;28;20214;-90
2021/12/26 08:27:32;;;;;;;17.23;8.63;;;;;;;4.28;89.00;98581.03;4991435;28;20466;-90
2021/12/26 08:29:59;;;;;;;15.10;9.68;;;;;;;4.32;89.22;98586.91;4992689;28;20199;-89
2021/12/26 08:32:24;;;;;;;17.15;11.00;;;;;;;4.47;89.22;98591.28;4987999;28;20488;-89
2021/12/26 08:34:51;;;;;;;9.77;8.03;;;;;;;4.46;88.94;98591.38;4984034;28;20573;-90
2021/12/26 08:37:17;;;;;;;10.43;7.90;;;;;;;4.45;88.65;98587.91;4983998;28;20600;-87
2021/12/26 08:39:52;;;;;;;12.77;9.07;;;;;;;4.46;88.87;98587.00;4985916;28;20664;-87
2021/12/26 08:42:18;;;;;;;16.45;7.70;;;;;;;4.45;88.80;98590.50;4965040;28;21002;-87
2021/12/26 08:44:45;;;;;;;12.20;7.70;;;;;;;4.44;88.96;98591.44;4990223;28;20805;-87
2021/12/26 08:47:12;;;;;;;14.50;9.73;;;;;;;4.43;88.87;98590.63;4976961;28;20203;-87
2021/12/26 08:49:39;;;;;;;10.65;7.80;;;;;;;4.42;88.71;98599.31;4977541;28;20220;-87
2021/12/26 08:52:06;;;;;;;13.98;8.40;;;;;;;4.44;89.00;98597.47;4985926;28;20272;-87
2021/12/26 08:54:34;;;;;;;10.52;7.95;;;;;;;4.42;88.77;98601.91;4970545;28;20218;-87
2021/12/26 08:57:02;;;;;;;13.80;7.55;;;;;;;4.46;88.88;98597.41;4987478;28;20212;-87
2021/12/26 08:59:30;;;;;;;13.23;7.72;;;;;;;4.51;88.71;98595.41;4988749;28;20399;-87
2021/12/26 09:02:04;;;;;;;13.60;9.15;;;;;;;4.68;88.56;98593.63;4967988;28;20492;-87
2021/12/26 09:04:30;;;;;;;8.88;6.20;;;;;;;4.73;88.49;98591.59;4967827;28;20219;-88
2021/12/26 09:06:58;;;;;;;13.17;9.17;;;;;;;4.77;88.18;98603.50;4991804;28;20203;-88
2021/12/26 09:09:25;;;;;;;9.90;7.35;;;;;;;4.78;87.94;98599.97;4991986;28;20716;-87
2021/12/26 09:11:51;;;;;;;9.05;6.78;;;;;;;4.75;87.89;98600.13;4986776;28;20238;-86
2021/12/26 09:14:25;;;;;;;8.97;6.40;;;;;;;4.75;88.24;98601.00;4983538;28;20238;-88
2021/12/26 09:16:53;;;;;;;15.10;9.20;;;;;;;4.77;88.04;98595.69;4969544;28;20884;-87
2021/12/26 09:19:19;;;;;;;8.60;7.15;;;;;;;4.82;87.93;98601.47;4970736;28;20200;-89
2021/12/26 09:21:47;;;;;;;10.67;6.80;;;;;;;4.86;88.05;98603.84;4990205;28;20202;-88
2021/12/26 09:24:13;;;;;;;10.77;6.85;;;;;;;4.92;87.53;98602.66;4971296;28;20210;-88
2021/12/26 09:26:39;;;;;;;9.77;6.70;;;;;;;4.95;87.48;98605.06;4986240;28;20467;-88
2021/12/26 09:29:04;;;;;;;9.93;6.57;;;;;;;5.00;87.45;98605.66;4980718;28;20199;-88
2021/12/26 09:31:33;;;;;;;13.47;9.30;;;;;;;5.13;87.52;98610.13;4981129;28;20520;-88
2021/12/26 09:34:01;;;;;;;13.00;9.93;;;;;;;5.19;87.08;98599.41;4979586;28;20222;-89
2021/12/26 09:36:26;;;;;;;12.23;9.07;;;;;;;5.21;86.88;98611.41;4984020;28;20215;-90
2021/12/26 09:38:52;;;;;;;12.80;9.27;;;;;;;5.24;87.08;98608.63;4968244;28;20223;-89
2021/12/26 09:41:21;;;;;;;11.70;8.13;;;;;;;5.29;87.11;98600.53;4986058;28;20518;-89
2021/12/26 09:43:46;;;;;;;11.25;8.00;;;;;;;5.33;86.67;98602.03;4968538;28;20207;-88
2021/12/26 09:46:12;;;;;;;13.87;8.20;;;;;;;5.36;86.65;98607.06;4986020;28;20873;-89
2021/12/26 09:48:37;;;;;;;7.50;6.40;;;;;;;5.43;86.52;98607.56;4983835;28;20341;-89
2021/12/26 09:51:03;;;;;;;8.53;6.37;;;;;;;5.46;86.38;98608.19;4988705;28;20809;-88
2021/12/26 09:53:40;;;;;;;8.60;7.50;;;;;;;5.46;86.51;98596.94;4983411;28;20203;-88
2021/12/26 09:56:08;;;;;;;8.30;7.00;;;;;;;5.44;86.24;98597.03;4985417;28;20239;-88
2021/12/26 09:58:35;;;;;;;6.38;5.78;;;;;;;5.46;86.07;98587.38;4995434;28;20217;-88
2021/12/26 10:01:02;;;;;;;10.38;8.25;;;;;;;5.52;85.92;98597.41;5002750;28;20491;-89
2021/12/26 10:03:35;;;;;;;16.48;10.07;;;;;;;5.57;85.65;98591.09;4977906;28;21501;-88
2021/12/26 10:06:06;;;;;;;11.05;9.02;;;;;;;5.59;85.57;98586.63;4994988;28;20200;-88
2021/12/26 10:08:49;;;;;;;13.48;8.40;;;;;;;5.61;85.89;98587.38;4991181;28;20270;-88
2021/12/26 10:11:17;;;;;;;11.75;8.15;;;;;;;5.67;85.43;98581.78;4988875;28;20198;-87
2021/12/26 10:13:56;;;;;;;8.23;6.38;;;;;;;5.74;85.21;98580.50;4988121;28;20249;-89
2021/12/26 10:16:27;;;;;;;9.00;5.85;;;;;;;5.82;85.25;98577.44;4985247;28;20398;-88
2021/12/26 10:18:56;;;;;;;5.85;5.10;;;;;;;5.89;84.92;98579.59;4973546;28;20207;-88
2021/12/26 10:21:50;;;;;;;9.52;7.03;;;;;;;5.92;84.97;98574.19;4992457;28;20861;-88
2021/12/26 10:24:23;;;;;;;6.47;5.60;;;;;;;5.91;84.99;98567.31;4985042;28;20203;-88
2021/12/26 10:26:52;;;;;;;8.90;5.65;;;;;;;5.90;84.94;98570.81;4988449;28;20227;-89
2021/12/26 10:29:33;;;;;;;6.45;5.63;;;;;;;5.91;84.87;98569.91;4989926;28;20310;-88
2021/12/26 10:32:11;;;;;;;9.35;6.22;;;;;;;5.98;84.82;98563.41;4990063;28;20499;-89
2021/12/26 10:34:47;;;;;;;6.90;5.80;;;;;;;5.95;85.17;98558.38;4989847;28;20202;-90
2021/12/26 10:37:18;;;;;;;8.38;6.07;;;;;;;5.96;84.85;98554.00;4987048;28;20215;-89
2021/12/26 10:40:11;;;;;;;8.38;6.40;;;;;;;5.95;84.72;98553.16;4979134;28;20200;-88
2021/12/26 10:42:39;;;;;;;8.30;6.88;;;;;;;5.91;85.08;98556.88;4965643;28;20222;-90
2021/12/26 10:45:11;;;;;;;8.38;7.55;;;;;;;5.89;85.25;98558.72;4982233;28;20207;-89
2021/12/26 10:47:39;;;;;;;8.07;7.20;;;;;;;5.90;85.15;98556.97;4985860;28;20273;-89
2021/12/26 10:50:06;;;;;;;10.20;8.80;;;;;;;5.95;85.08;98557.53;4992546;28;20269;-89
2021/12/26 10:52:39;;;;;;;9.82;7.68;;;;;;;6.02;85.23;98560.59;4991866;28;20214;-89
2021/12/26 10:55:12;;;;;;;12.38;8.90;;;;;;;6.09;84.69;98554.09;4989175;28;20288;-89
2021/12/26 10:57:41;;;;;;;11.85;8.85;;;;;;;6.16;84.98;98560.59;4988671;28;20230;-90
2021/12/26 11:00:07;;;;;;;16.58;10.60;;;;;;;6.23;84.98;98543.63;4968170;28;20304;-89
2021/12/26 11:02:37;;;;;;;12.07;8.87;;;;;;;6.30;85.03;98538.88;4990391;28;20637;-89
2021/12/26 11:05:09;;;;;;;9.20;6.82;;;;;;;6.31;84.42;98535.31;5002078;28;20231;-89
2021/12/26 11:07:48;;;;;;;6.93;6.20;;;;;;;6.24;84.77;98541.84;5007653;28;20295;-88
2021/12/26 11:10:24;;;;;;;10.80;7.28;;;;;;;6.26;84.61;98534.78;5008496;28;20237;-88
2021/12/26 11:12:52;;;;;;;8.00;6.93;;;;;;;6.30;84.52;98531.06;5008104;28;20538;-89
2021/12/26 11:15:22;;;;;;;6.53;5.82;;;;;;;6.34;84.25;98528.13;5008170;28;20219;-89
2021/12/26 11:17:53;;;;;;;9.88;6.10;;;;;;;6.41;84.46;98523.38;5008290;28;20230;-89
2021/12/26 11:20:32;;;;;;;8.68;6.40;;;;;;;6.47;84.60;98528.19;4994234;28;20265;-90
2021/12/26 11:22:59;;;;;;;9.48;7.28;;;;;;;6.57;83.95;98528.44;4985216;28;20219;-90
2021/12/26 11:25:28;;;;;;;7.70;6.30;;;;;;;6.64;83.47;98527.09;4987672;28;20210;-90
2021/12/26 11:27:54;;;;;;;8.95;6.90;;;;;;;6.70;83.60;98523.25;4990000;28;20204;-90
2021/12/26 11:30:24;;;;;;;10.27;9.15;;;;;;;6.77;83.44;98516.69;4988915;28;20217;-89
2021/12/26 11:32:50;;;;;;;12.70;9.20;;;;;;;6.83;83.18;98514.53;4988436;28;20292;-89
2021/12/26 11:35:16;;;;;;;10.00;8.33;;;;;;;6.94;83.26;98515.59;4987661;28;20369;-89
2021/12/26 11:37:41;;;;;;;9.53;8.10;;;;;;;7.03;83.06;98510.59;4974678;28;20490;-88
2021/12/26 11:40:28;;;;;;;9.15;7.40;;;;;;;7.08;82.89;98515.53;4993544;28;20623;-89
2021/12/26 11:43:44;;;;;;;7.30;6.63;;;;;;;7.09;83.13;98510.19;4988650;28;20248;-88
2021/12/26 11:47:08;;;;;;;6.38;5.80;;;;;;;7.08;83.06;98510.31;4931251;28;20864;-87
2021/12/26 11:50:38;;;;;;;6.35;5.60;;;;;;;7.12;83.03;98500.47;4917191;29;21008;-88
2021/12/26 11:53:45;;;;;;;6.30;5.65;;;;;;;7.16;83.20;98502.78;4897345;29;20305;-87
2021/12/26 11:57:20;;;;;;;7.25;6.22;;;;;;;7.17;82.87;98499.22;4972235;28;20509;-88